Archival Weather

Fayette Rgnl Air Cntr Arp

Fayette Rgnl Air Cntr Arp, Texas (K3T5)

Report from: Thursday, September 22, 2022 7:35 AM CDT
Current time: Saturday, February 4, 2023 12:07 AM CST

Current weather
Weather history
Weather forecast

Present weatherMist
Temperature19.3°C (66.7°F)
Dew point19.2°C (66.6°F)
Winds Calm
Visibility4 mi. (6.4 km)
Clouds Sky clear
Altimeter30.00 in.Hg (1016 mB)
Relative humidity99 %
Density altitude716 ft. (218 m)
Remarks Fully automated report
Automated weather observing station with precipitation discriminator
Flight conditions Marginal Visual Meteorological Conditions
Raw dataK3T5 221235Z AUTO 00000KT 4SM BR CLR 19/19 A3000 RMK AO2 T01930192
An unhandled exception has occurred. See browser dev tools for details. Reload 🗙